PWSweather.com
Personal Weather Stations
Station Observations
BALTRELAY
Relay, Baltimore, MD 21227

RelayBaltimore, MD 21227

Lat: 39.24588, Lon: -76.719772

Elevation: 221

Station Type: Davis Vantage Pro2 (6153)

http://www.relayweather.com

Latest ConditionsUpdated 1:50:06 PM GMT Wednesday, Apr 23, 2014
Currently Today's Max Today's Min Today's Average
Temperature 49.3°F9.6°C 67.6°F19.8°C 45.8°F7.7°C 52.5°F11.4°C
Dew Point 35.1°F1.7°C 55.1°F12.8°C 34.3°F1.3°C 42.7°F5.9°C
Winds 8.3 mph W13.4 kmh W 17.8 mph WNW28.6 kmh WNW - 7.0 mph 11.3 kmh
Wind Gusts 20.2 mph32.5 kmh 29.3 mph47.2 kmh - -
Humidity 58% 90% 56% 70%
Pressure 29.76 in1007.8 mb 29.76 in1007.8 mb 29.55 in1000.7 mb -
Precipitation - 0.01 in0.3 mm - -
Hour Temp Dew Point Humidity Winds Wind Gusts Pressure Precip Precip Rate Daily Precip Total
01:50 PM 49.3°F9.6°C 35.1°F1.7°C 58% 8.3 mph W13.4 kmh W 20.2 mph32.5 kmh 29.76 in1007.8 mb 0.00 in0.0 mm 0.00 in/hr0.0 mm/hr 0.01 in0.3 mm
01:45 PM 49.4°F9.7°C 34.3°F1.3°C 56% 17.8 mph WNW28.6 kmh WNW 27.3 mph43.9 kmh 29.76 in1007.8 mb 0.00 in0.0 mm 0.00 in/hr0.0 mm/hr 0.01 in0.3 mm
01:40 PM 49.6°F9.8°C 35.0°F1.7°C 57% 11.6 mph NW18.7 kmh NW 18.2 mph29.3 kmh 29.76 in1007.8 mb 0.00 in0.0 mm 0.00 in/hr0.0 mm/hr 0.01 in0.3 mm
01:30 PM 49.5°F9.7°C 35.8°F2.1°C 59% 8.8 mph WNW14.2 kmh WNW 14.1 mph22.7 kmh 29.75 in1007.5 mb 0.00 in0.0 mm 0.00 in/hr0.0 mm/hr 0.01 in0.3 mm
01:20 PM 49.9°F9.9°C 35.3°F1.8°C 57% 12.6 mph NW20.3 kmh NW 17.2 mph27.7 kmh 29.75 in1007.5 mb 0.00 in0.0 mm 0.00 in/hr0.0 mm/hr 0.01 in0.3 mm
01:15 PM 50.2°F10.1°C 35.5°F1.9°C 57% 5.4 mph W8.7 kmh W 14.1 mph22.7 kmh 29.75 in1007.5 mb 0.00 in0.0 mm 0.00 in/hr0.0 mm/hr 0.01 in0.3 mm
01:10 PM 50.4°F10.2°C 35.7°F2.1°C 57% 7.0 mph W11.3 kmh W 15.1 mph24.3 kmh 29.75 in1007.5 mb 0.00 in0.0 mm 0.00 in/hr0.0 mm/hr 0.01 in0.3 mm
01:00 PM 50.5°F10.3°C 35.8°F2.1°C 57% 14.1 mph W22.7 kmh W 17.2 mph27.7 kmh 29.75 in1007.5 mb 0.00 in0.0 mm 0.00 in/hr0.0 mm/hr 0.01 in0.3 mm
12:50 PM 50.0°F10.0°C 36.2°F2.3°C 59% 12.2 mph NW19.6 kmh NW 20.2 mph32.5 kmh 29.75 in1007.5 mb 0.00 in0.0 mm 0.00 in/hr0.0 mm/hr 0.01 in0.3 mm
12:45 PM 49.1°F9.5°C 35.8°F2.1°C 60% 6.1 mph NW9.8 kmh NW 15.1 mph24.3 kmh 29.75 in1007.5 mb 0.00 in0.0 mm 0.00 in/hr0.0 mm/hr 0.01 in0.3 mm
12:40 PM 48.4°F9.1°C 35.1°F1.7°C 60% 12.0 mph NW19.3 kmh NW 17.2 mph27.7 kmh 29.75 in1007.5 mb 0.00 in0.0 mm 0.00 in/hr0.0 mm/hr 0.01 in0.3 mm
12:30 PM 47.9°F8.8°C 35.1°F1.7°C 61% 11.4 mph NNW18.3 kmh NNW 21.2 mph34.1 kmh 29.75 in1007.5 mb 0.00 in0.0 mm 0.00 in/hr0.0 mm/hr 0.01 in0.3 mm
12:20 PM 47.9°F8.8°C 35.5°F1.9°C 62% 16.0 mph NW25.7 kmh NW 25.2 mph40.6 kmh 29.74 in1007.1 mb 0.00 in0.0 mm 0.00 in/hr0.0 mm/hr 0.01 in0.3 mm
12:15 PM 47.8°F8.8°C 35.8°F2.1°C 63% 13.5 mph NNW21.7 kmh NNW 16.2 mph26.1 kmh 29.74 in1007.1 mb 0.00 in0.0 mm 0.00 in/hr0.0 mm/hr 0.01 in0.3 mm
12:10 PM 47.7°F8.7°C 36.1°F2.3°C 64% 7.0 mph NW11.3 kmh NW 18.2 mph29.3 kmh 29.74 in1007.1 mb 0.00 in0.0 mm 0.00 in/hr0.0 mm/hr 0.01 in0.3 mm
12:00 PM 47.5°F8.6°C 35.5°F1.9°C 63% 9.0 mph WNW14.5 kmh WNW 15.1 mph24.3 kmh 29.74 in1007.1 mb 0.00 in0.0 mm 0.00 in/hr0.0 mm/hr 0.01 in0.3 mm
11:50 AM 47.8°F8.8°C 36.2°F2.3°C 64% 10.8 mph NW17.4 kmh NW 16.2 mph26.1 kmh 29.73 in1006.8 mb 0.00 in0.0 mm 0.00 in/hr0.0 mm/hr 0.01 in0.3 mm
11:45 AM 47.8°F8.8°C 36.2°F2.3°C 64% 10.9 mph NW17.5 kmh NW 13.1 mph21.1 kmh 29.73 in1006.8 mb 0.00 in0.0 mm 0.00 in/hr0.0 mm/hr 0.01 in0.3 mm
11:40 AM 47.7°F8.7°C 36.5°F2.5°C 65% 6.7 mph WNW10.8 kmh WNW 12.1 mph19.5 kmh 29.72 in1006.4 mb 0.00 in0.0 mm 0.00 in/hr0.0 mm/hr 0.01 in0.3 mm
11:30 AM 47.7°F8.7°C 37.3°F2.9°C 67% 6.6 mph W10.6 kmh W 10.1 mph16.3 kmh 29.72 in1006.4 mb 0.00 in0.0 mm 0.00 in/hr0.0 mm/hr 0.01 in0.3 mm
11:20 AM 47.4°F8.6°C 37.3°F2.9°C 68% 3.5 mph NW5.6 kmh NW 4.0 mph6.4 kmh 29.72 in1006.4 mb 0.00 in0.0 mm 0.00 in/hr0.0 mm/hr 0.01 in0.3 mm
11:15 AM 47.1°F8.4°C 37.5°F3.1°C 69% 1.1 mph WNW1.8 kmh WNW 2.0 mph3.2 kmh 29.72 in1006.4 mb 0.00 in0.0 mm 0.00 in/hr0.0 mm/hr 0.01 in0.3 mm
11:10 AM 46.9°F8.3°C 37.2°F2.9°C 69% 4.2 mph W6.8 kmh W 5.0 mph8.0 kmh 29.72 in1006.4 mb 0.00 in0.0 mm 0.00 in/hr0.0 mm/hr 0.01 in0.3 mm
11:00 AM 46.4°F8.0°C 37.1°F2.8°C 70% 4.3 mph WSW6.9 kmh WSW 7.1 mph11.4 kmh 29.71 in1006.1 mb 0.00 in0.0 mm 0.00 in/hr0.0 mm/hr 0.01 in0.3 mm
10:50 AM 46.0°F7.8°C 37.1°F2.8°C 71% 4.2 mph WSW6.8 kmh WSW 9.1 mph14.6 kmh 29.71 in1006.1 mb 0.00 in0.0 mm 0.00 in/hr0.0 mm/hr 0.01 in0.3 mm
10:45 AM 45.9°F7.7°C 37.0°F2.8°C 71% 2.6 mph WSW4.2 kmh WSW 5.0 mph8.0 kmh 29.70 in1005.8 mb 0.00 in0.0 mm 0.00 in/hr0.0 mm/hr 0.01 in0.3 mm
10:40 AM 45.8°F7.7°C 36.6°F2.6°C 70% 1.7 mph W2.7 kmh W 8.1 mph13.0 kmh 29.70 in1005.8 mb 0.00 in0.0 mm 0.00 in/hr0.0 mm/hr 0.01 in0.3 mm
10:30 AM 45.9°F7.7°C 36.7°F2.6°C 70% 4.5 mph WSW7.2 kmh WSW 7.1 mph11.4 kmh 29.70 in1005.8 mb 0.00 in0.0 mm 0.00 in/hr0.0 mm/hr 0.01 in0.3 mm
10:20 AM 46.1°F7.8°C 36.8°F2.7°C 70% 0.8 mph NW1.3 kmh NW 7.1 mph11.4 kmh 29.69 in1005.4 mb 0.00 in0.0 mm 0.00 in/hr0.0 mm/hr 0.01 in0.3 mm
10:15 AM 46.1°F7.8°C 36.9°F2.7°C 70% 3.5 mph WSW5.6 kmh WSW 7.1 mph11.4 kmh 29.69 in1005.4 mb 0.00 in0.0 mm 0.00 in/hr0.0 mm/hr 0.01 in0.3 mm
10:10 AM 46.2°F7.9°C 36.9°F2.7°C 70% 3.6 mph W5.8 kmh W 8.1 mph13.0 kmh 29.69 in1005.4 mb 0.00 in0.0 mm 0.00 in/hr0.0 mm/hr 0.01 in0.3 mm
10:00 AM 46.4°F8.0°C 36.8°F2.7°C 69% 3.1 mph NW5.0 kmh NW 6.1 mph9.8 kmh 29.68 in1005.1 mb 0.00 in0.0 mm 0.00 in/hr0.0 mm/hr 0.01 in0.3 mm
09:50 AM 46.8°F8.2°C 36.8°F2.7°C 68% 2.5 mph WSW4.0 kmh WSW 5.0 mph8.0 kmh 29.68 in1005.1 mb 0.00 in0.0 mm 0.00 in/hr0.0 mm/hr 0.01 in0.3 mm
09:45 AM 47.0°F8.3°C 36.6°F2.6°C 67% 1.0 mph WSW1.6 kmh WSW 2.0 mph3.2 kmh 29.68 in1005.1 mb 0.00 in0.0 mm 0.00 in/hr0.0 mm/hr 0.01 in0.3 mm
09:40 AM 47.2°F8.4°C 36.8°F2.7°C 67% 0.3 mph W0.5 kmh W 4.0 mph6.4 kmh 29.68 in1005.1 mb 0.00 in0.0 mm 0.00 in/hr0.0 mm/hr 0.01 in0.3 mm
09:30 AM 47.4°F8.6°C 36.6°F2.6°C 66% 0.2 mph WSW0.3 kmh WSW -- 29.68 in1005.1 mb 0.00 in0.0 mm 0.00 in/hr0.0 mm/hr 0.01 in0.3 mm
09:20 AM 47.7°F8.7°C 36.1°F2.3°C 64% 1.7 mph S2.7 kmh S 3.0 mph4.8 kmh 29.67 in1004.7 mb 0.00 in0.0 mm 0.00 in/hr0.0 mm/hr 0.01 in0.3 mm
09:15 AM 47.9°F8.8°C 35.9°F2.2°C 63% Calm Calm -- 29.67 in1004.7 mb 0.00 in0.0 mm 0.00 in/hr0.0 mm/hr 0.01 in0.3 mm
09:10 AM 48.0°F8.9°C 36.0°F2.2°C 63% 1.2 mph SW1.9 kmh SW 3.0 mph4.8 kmh 29.67 in1004.7 mb 0.00 in0.0 mm 0.00 in/hr0.0 mm/hr 0.01 in0.3 mm
09:00 AM 48.3°F9.1°C 35.9°F2.2°C 62% 2.3 mph WSW3.7 kmh WSW 5.0 mph8.0 kmh 29.67 in1004.7 mb 0.00 in0.0 mm 0.00 in/hr0.0 mm/hr 0.01 in0.3 mm
08:50 AM 48.7°F9.3°C 35.8°F2.1°C 61% 6.3 mph WNW10.1 kmh WNW 8.1 mph13.0 kmh 29.67 in1004.7 mb 0.00 in0.0 mm 0.00 in/hr0.0 mm/hr 0.01 in0.3 mm
08:45 AM 48.8°F9.3°C 35.9°F2.2°C 61% 7.8 mph NW12.6 kmh NW 8.1 mph13.0 kmh 29.67 in1004.7 mb 0.00 in0.0 mm 0.00 in/hr0.0 mm/hr 0.01 in0.3 mm
08:40 AM 48.8°F9.3°C 35.9°F2.2°C 61% 8.0 mph NW12.9 kmh NW 14.1 mph22.7 kmh 29.67 in1004.7 mb 0.00 in0.0 mm 0.00 in/hr0.0 mm/hr 0.01 in0.3 mm
08:30 AM 48.8°F9.3°C 35.9°F2.2°C 61% 10.3 mph W16.6 kmh W 16.2 mph26.1 kmh 29.67 in1004.7 mb 0.00 in0.0 mm 0.00 in/hr0.0 mm/hr 0.01 in0.3 mm
08:20 AM 48.8°F9.3°C 36.3°F2.4°C 62% 10.2 mph WSW16.4 kmh WSW 17.2 mph27.7 kmh 29.67 in1004.7 mb 0.00 in0.0 mm 0.00 in/hr0.0 mm/hr 0.01 in0.3 mm
08:15 AM 48.9°F9.4°C 36.4°F2.4°C 62% 9.9 mph W15.9 kmh W 18.2 mph29.3 kmh 29.66 in1004.4 mb 0.00 in0.0 mm 0.00 in/hr0.0 mm/hr 0.01 in0.3 mm
08:10 AM 49.0°F9.4°C 36.5°F2.5°C 62% 6.8 mph WNW10.9 kmh WNW 14.1 mph22.7 kmh 29.66 in1004.4 mb 0.00 in0.0 mm 0.00 in/hr0.0 mm/hr 0.01 in0.3 mm
08:00 AM 49.2°F9.6°C 36.3°F2.4°C 61% 7.2 mph N11.6 kmh N 11.1 mph17.9 kmh 29.66 in1004.4 mb 0.00 in0.0 mm 0.00 in/hr0.0 mm/hr 0.01 in0.3 mm
07:50 AM 49.4°F9.7°C 36.9°F2.7°C 62% 10.4 mph NW16.7 kmh NW 17.2 mph27.7 kmh 29.66 in1004.4 mb 0.00 in0.0 mm 0.00 in/hr0.0 mm/hr 0.01 in0.3 mm
07:45 AM 49.5°F9.7°C 37.0°F2.8°C 62% 12.7 mph W20.4 kmh W 21.2 mph34.1 kmh 29.65 in1004.1 mb 0.00 in0.0 mm 0.00 in/hr0.0 mm/hr 0.01 in0.3 mm
07:40 AM 49.6°F9.8°C 37.2°F2.9°C 62% 14.7 mph NNW23.7 kmh NNW 20.2 mph32.5 kmh 29.65 in1004.1 mb 0.00 in0.0 mm 0.00 in/hr0.0 mm/hr 0.01 in0.3 mm
07:30 AM 49.9°F9.9°C 37.0°F2.8°C 61% 12.2 mph W19.6 kmh W 15.1 mph24.3 kmh 29.64 in1003.7 mb 0.00 in0.0 mm 0.00 in/hr0.0 mm/hr 0.01 in0.3 mm
07:20 AM 50.2°F10.1°C 36.8°F2.7°C 60% 14.9 mph WNW24.0 kmh WNW 29.3 mph47.2 kmh 29.64 in1003.7 mb 0.00 in0.0 mm 0.00 in/hr0.0 mm/hr 0.01 in0.3 mm
07:15 AM 50.3°F10.2°C 37.0°F2.8°C 60% 12.5 mph WNW20.1 kmh WNW 23.2 mph37.3 kmh 29.63 in1003.4 mb 0.00 in0.0 mm 0.00 in/hr0.0 mm/hr 0.01 in0.3 mm
07:10 AM 50.4°F10.2°C 37.0°F2.8°C 60% 15.6 mph NNW25.1 kmh NNW 27.3 mph43.9 kmh 29.63 in1003.4 mb 0.00 in0.0 mm 0.00 in/hr0.0 mm/hr 0.01 in0.3 mm
07:00 AM 50.4°F10.2°C 37.4°F3.0°C 61% 9.0 mph NNW14.5 kmh NNW 18.2 mph29.3 kmh 29.63 in1003.4 mb 0.00 in0.0 mm 0.00 in/hr0.0 mm/hr 0.01 in0.3 mm
06:50 AM 50.6°F10.3°C 37.2°F2.9°C 60% 15.9 mph NNW25.6 kmh NNW 19.2 mph30.9 kmh 29.62 in1003.0 mb 0.00 in0.0 mm 0.00 in/hr0.0 mm/hr 0.01 in0.3 mm
06:45 AM 50.7°F10.4°C 37.4°F3.0°C 60% 10.8 mph WNW17.4 kmh WNW 18.2 mph29.3 kmh 29.62 in1003.0 mb 0.00 in0.0 mm 0.00 in/hr0.0 mm/hr 0.01 in0.3 mm
06:40 AM 50.8°F10.4°C 37.4°F3.0°C 60% 12.7 mph WNW20.4 kmh WNW 29.3 mph47.2 kmh 29.62 in1003.0 mb 0.00 in0.0 mm 0.00 in/hr0.0 mm/hr 0.01 in0.3 mm
06:30 AM 51.0°F10.6°C 38.0°F3.3°C 61% 12.4 mph N20.0 kmh N 26.3 mph42.3 kmh 29.62 in1003.0 mb 0.00 in0.0 mm 0.00 in/hr0.0 mm/hr 0.01 in0.3 mm
06:20 AM 51.2°F10.7°C 38.2°F3.4°C 61% 15.5 mph W24.9 kmh W 26.3 mph42.3 kmh 29.62 in1003.0 mb 0.00 in0.0 mm 0.00 in/hr0.0 mm/hr 0.01 in0.3 mm
06:15 AM 51.3°F10.7°C 38.3°F3.5°C 61% 13.4 mph W21.6 kmh W 18.2 mph29.3 kmh 29.62 in1003.0 mb 0.00 in0.0 mm 0.00 in/hr0.0 mm/hr 0.01 in0.3 mm
06:10 AM 51.4°F10.8°C 38.4°F3.6°C 61% 14.5 mph N23.3 kmh N 29.3 mph47.2 kmh 29.62 in1003.0 mb 0.00 in0.0 mm 0.00 in/hr0.0 mm/hr 0.01 in0.3 mm
06:00 AM 51.7°F10.9°C 38.7°F3.7°C 61% 14.7 mph NNW23.7 kmh NNW 28.3 mph45.5 kmh 29.63 in1003.4 mb 0.00 in0.0 mm 0.00 in/hr0.0 mm/hr 0.01 in0.3 mm
05:50 AM 52.2°F11.2°C 39.1°F3.9°C 61% 12.9 mph N20.8 kmh N 19.2 mph30.9 kmh 29.63 in1003.4 mb 0.00 in0.0 mm 0.00 in/hr0.0 mm/hr 0.01 in0.3 mm
05:45 AM 52.4°F11.3°C 39.3°F4.1°C 61% 16.1 mph WNW25.9 kmh WNW 28.3 mph45.5 kmh 29.63 in1003.4 mb 0.00 in0.0 mm 0.00 in/hr0.0 mm/hr 0.01 in0.3 mm
05:40 AM 52.8°F11.6°C 40.1°F4.5°C 62% 12.3 mph NW19.8 kmh NW 22.2 mph35.7 kmh 29.63 in1003.4 mb 0.00 in0.0 mm 0.00 in/hr0.0 mm/hr 0.01 in0.3 mm
05:30 AM 53.5°F11.9°C 42.8°F6.0°C 67% 11.0 mph NNW17.7 kmh NNW 14.1 mph22.7 kmh 29.63 in1003.4 mb 0.00 in0.0 mm 0.00 in/hr0.0 mm/hr 0.01 in0.3 mm
05:20 AM 54.1°F12.3°C 44.2°F6.8°C 69% 7.7 mph NW12.4 kmh NW 11.1 mph17.9 kmh 29.63 in1003.4 mb 0.00 in0.0 mm 0.00 in/hr0.0 mm/hr 0.01 in0.3 mm
05:15 AM 54.4°F12.4°C 44.8°F7.1°C 70% 7.9 mph NNW12.7 kmh NNW 9.1 mph14.6 kmh 29.63 in1003.4 mb 0.00 in0.0 mm 0.00 in/hr0.0 mm/hr 0.01 in0.3 mm
05:10 AM 54.6°F12.6°C 44.6°F7.0°C 69% 7.6 mph NW12.2 kmh NW 14.1 mph22.7 kmh 29.63 in1003.4 mb 0.00 in0.0 mm 0.00 in/hr0.0 mm/hr 0.01 in0.3 mm
05:00 AM 55.2°F12.9°C 47.0°F8.3°C 74% 6.8 mph N10.9 kmh N 22.2 mph35.7 kmh 29.63 in1003.4 mb 0.00 in0.0 mm 0.00 in/hr0.0 mm/hr 0.01 in0.3 mm
04:50 AM 55.6°F13.1°C 47.8°F8.8°C 75% 11.5 mph N18.5 kmh N 13.1 mph21.1 kmh 29.63 in1003.4 mb 0.00 in0.0 mm 0.00 in/hr0.0 mm/hr 0.01 in0.3 mm
04:45 AM 55.8°F13.2°C 48.0°F8.9°C 75% 4.4 mph NW7.1 kmh NW 7.1 mph11.4 kmh 29.63 in1003.4 mb 0.00 in0.0 mm 0.00 in/hr0.0 mm/hr 0.01 in0.3 mm
04:40 AM 55.9°F13.3°C 48.1°F8.9°C 75% 6.7 mph N10.8 kmh N 9.1 mph14.6 kmh 29.62 in1003.0 mb 0.00 in0.0 mm 0.00 in/hr0.0 mm/hr 0.01 in0.3 mm
04:30 AM 56.2°F13.4°C 48.4°F9.1°C 75% 8.9 mph WSW14.3 kmh WSW 12.1 mph19.5 kmh 29.62 in1003.0 mb 0.00 in0.0 mm 0.00 in/hr0.0 mm/hr 0.01 in0.3 mm
04:20 AM 56.5°F13.6°C 49.4°F9.7°C 77% 9.3 mph NW15.0 kmh NW 14.1 mph22.7 kmh 29.62 in1003.0 mb 0.00 in0.0 mm 0.00 in/hr0.0 mm/hr 0.01 in0.3 mm
04:15 AM 56.6°F13.7°C 50.1°F10.1°C 79% 8.8 mph WNW14.2 kmh WNW 12.1 mph19.5 kmh 29.61 in1002.7 mb 0.01 in0.3 mm 0.12 in/hr3.0 mm/hr 0.01 in0.3 mm
04:10 AM 56.7°F13.7°C 50.9°F10.5°C 81% 10.9 mph NE17.5 kmh NE 16.2 mph26.1 kmh 29.61 in1002.7 mb 0.00 in0.0 mm 0.00 in/hr0.0 mm/hr 0.17 in4.3 mm
04:00 AM 56.8°F13.8°C 52.7°F11.5°C 86% 12.4 mph WNW20.0 kmh WNW 20.2 mph32.5 kmh 29.60 in1002.4 mb 0.00 in0.0 mm 0.00 in/hr0.0 mm/hr 0.17 in4.3 mm
03:50 AM 56.7°F13.7°C 52.9°F11.6°C 87% 4.7 mph NW7.6 kmh NW 8.1 mph13.0 kmh 29.61 in1002.7 mb 0.00 in0.0 mm 0.00 in/hr0.0 mm/hr 0.17 in4.3 mm
03:45 AM 56.5°F13.6°C 53.0°F11.7°C 88% 7.6 mph W12.2 kmh W 10.1 mph16.3 kmh 29.60 in1002.4 mb 0.00 in0.0 mm 0.00 in/hr0.0 mm/hr 0.17 in4.3 mm
03:40 AM 56.3°F13.5°C 53.1°F11.7°C 89% 6.4 mph NW10.3 kmh NW 9.1 mph14.6 kmh 29.60 in1002.4 mb 0.00 in0.0 mm 0.00 in/hr0.0 mm/hr 0.17 in4.3 mm
03:30 AM 56.2°F13.4°C 53.3°F11.8°C 90% 7.1 mph W11.4 kmh W 11.1 mph17.9 kmh 29.60 in1002.4 mb 0.00 in0.0 mm 0.00 in/hr0.0 mm/hr 0.17 in4.3 mm
03:20 AM 56.2°F13.4°C 53.3°F11.8°C 90% 6.2 mph WNW10.0 kmh WNW 8.1 mph13.0 kmh 29.60 in1002.4 mb 0.00 in0.0 mm 0.00 in/hr0.0 mm/hr 0.17 in4.3 mm
03:15 AM 56.1°F13.4°C 53.2°F11.8°C 90% 7.2 mph W11.6 kmh W 10.1 mph16.3 kmh 29.60 in1002.4 mb 0.00 in0.0 mm 0.00 in/hr0.0 mm/hr 0.17 in4.3 mm
03:10 AM 56.0°F13.3°C 53.1°F11.7°C 90% 2.9 mph W4.7 kmh W 7.1 mph11.4 kmh 29.60 in1002.4 mb 0.00 in0.0 mm 0.00 in/hr0.0 mm/hr 0.17 in4.3 mm
03:00 AM 56.0°F13.3°C 53.1°F11.7°C 90% 1.1 mph WNW1.8 kmh WNW 3.0 mph4.8 kmh 29.59 in1002.0 mb 0.00 in0.0 mm 0.00 in/hr0.0 mm/hr 0.17 in4.3 mm
02:50 AM 56.1°F13.4°C 53.2°F11.8°C 90% 1.0 mph NW1.6 kmh NW 4.0 mph6.4 kmh 29.59 in1002.0 mb 0.00 in0.0 mm 0.00 in/hr0.0 mm/hr 0.17 in4.3 mm
02:45 AM 56.2°F13.4°C 53.3°F11.8°C 90% 2.4 mph WNW3.9 kmh WNW 2.0 mph3.2 kmh 29.59 in1002.0 mb 0.00 in0.0 mm 0.00 in/hr0.0 mm/hr 0.17 in4.3 mm
02:40 AM 56.3°F13.5°C 53.4°F11.9°C 90% 0.1 mph WNW0.2 kmh WNW 2.0 mph3.2 kmh 29.59 in1002.0 mb 0.00 in0.0 mm 0.00 in/hr0.0 mm/hr 0.17 in4.3 mm
02:30 AM 56.5°F13.6°C 53.6°F12.0°C 90% 0.3 mph NW0.5 kmh NW 2.0 mph3.2 kmh 29.60 in1002.4 mb 0.00 in0.0 mm 0.00 in/hr0.0 mm/hr 0.17 in4.3 mm
02:20 AM 56.5°F13.6°C 53.6°F12.0°C 90% Calm Calm -- 29.60 in1002.4 mb 0.00 in0.0 mm 0.00 in/hr0.0 mm/hr 0.17 in4.3 mm
02:15 AM 56.5°F13.6°C 53.6°F12.0°C 90% 0.3 mph NW0.5 kmh NW 3.0 mph4.8 kmh 29.60 in1002.4 mb 0.00 in0.0 mm 0.00 in/hr0.0 mm/hr 0.17 in4.3 mm
02:10 AM 56.6°F13.7°C 53.4°F11.9°C 89% 2.6 mph NW4.2 kmh NW 4.0 mph6.4 kmh 29.60 in1002.4 mb 0.00 in0.0 mm 0.00 in/hr0.0 mm/hr 0.17 in4.3 mm
02:00 AM 56.7°F13.7°C 53.2°F11.8°C 88% Calm Calm 1.0 mph1.6 kmh 29.60 in1002.4 mb 0.00 in0.0 mm 0.00 in/hr0.0 mm/hr 0.17 in4.3 mm
01:50 AM 56.8°F13.8°C 53.3°F11.8°C 88% Calm Calm -- 29.61 in1002.7 mb 0.01 in0.3 mm 0.12 in/hr3.0 mm/hr 0.17 in4.3 mm
01:45 AM 56.9°F13.8°C 53.1°F11.7°C 87% 0.4 mph WNW0.6 kmh WNW 2.0 mph3.2 kmh 29.61 in1002.7 mb 0.00 in0.0 mm 0.00 in/hr0.0 mm/hr 0.16 in4.1 mm
01:40 AM 57.0°F13.9°C 53.2°F11.8°C 87% Calm Calm -- 29.61 in1002.7 mb 0.00 in0.0 mm 0.00 in/hr0.0 mm/hr 0.16 in4.1 mm
01:30 AM 57.3°F14.1°C 53.1°F11.7°C 86% 0.4 mph WNW0.6 kmh WNW 2.0 mph3.2 kmh 29.61 in1002.7 mb 0.00 in0.0 mm 0.00 in/hr0.0 mm/hr 0.16 in4.1 mm
01:20 AM 57.6°F14.2°C 53.1°F11.7°C 85% Calm Calm -- 29.61 in1002.7 mb 0.01 in0.3 mm 0.12 in/hr3.0 mm/hr 0.16 in4.1 mm
01:15 AM 57.9°F14.4°C 53.1°F11.7°C 84% 0.1 mph W0.2 kmh W -- 29.61 in1002.7 mb 0.01 in0.3 mm 0.12 in/hr3.0 mm/hr 0.15 in3.8 mm
01:10 AM 58.4°F14.7°C 53.2°F11.8°C 83% 3.4 mph W5.5 kmh W 3.0 mph4.8 kmh 29.61 in1002.7 mb 0.07 in1.8 mm 0.42 in/hr10.7 mm/hr 0.14 in3.6 mm
01:00 AM 60.6°F15.9°C 53.3°F11.8°C 77% 9.0 mph NW14.5 kmh NW 17.2 mph27.7 kmh 29.61 in1002.7 mb 0.06 in1.5 mm 0.07 in/hr1.8 mm/hr 0.08 in2.0 mm
12:50 AM 63.2°F17.3°C 52.5°F11.4°C 68% 10.0 mph NW16.1 kmh NW 13.1 mph21.1 kmh 29.60 in1002.4 mb 0.01 in0.3 mm 0.12 in/hr3.0 mm/hr 0.03 in0.8 mm
12:45 AM 64.8°F18.2°C 52.3°F11.3°C 64% 17.1 mph N27.5 kmh N 21.2 mph34.1 kmh 29.59 in1002.0 mb 0.00 in0.0 mm 0.00 in/hr0.0 mm/hr 0.02 in0.5 mm
12:40 AM 66.1°F18.9°C 53.5°F11.9°C 64% 10.2 mph NW16.4 kmh NW 13.1 mph21.1 kmh 29.58 in1001.7 mb 0.00 in0.0 mm 0.00 in/hr0.0 mm/hr 0.02 in0.5 mm
12:30 AM 66.7°F19.3°C 55.0°F12.8°C 66% Calm Calm -- 29.56 in1001.0 mb 0.00 in0.0 mm 0.00 in/hr0.0 mm/hr 0.02 in0.5 mm
12:20 AM 66.9°F19.4°C 54.7°F12.6°C 65% 0.2 mph WSW0.3 kmh WSW 1.0 mph1.6 kmh 29.56 in1001.0 mb 0.00 in0.0 mm 0.00 in/hr0.0 mm/hr 0.02 in0.5 mm
12:15 AM 67.1°F19.5°C 54.9°F12.7°C 65% Calm Calm -- 29.56 in1001.0 mb 0.00 in0.0 mm 0.00 in/hr0.0 mm/hr 0.02 in0.5 mm
12:10 AM 67.3°F19.6°C 55.1°F12.8°C 65% Calm Calm -- 29.55 in1000.7 mb 0.00 in0.0 mm 0.00 in/hr0.0 mm/hr 0.02 in0.5 mm
12:00 AM 67.6°F19.8°C 55.0°F12.8°C 64% Calm Calm -- 29.55 in1000.7 mb 0.00 in0.0 mm 0.00 in/hr0.0 mm/hr 0.02 in0.5 mm